Time;durP1;ratioP1;P1;durP2;ratioP2;P2;SDS_P1;SDS_P2;PMS_P1;PMS_P2;Temp;Humidity;BMP_temperature;BMP_pressure;BME280_temperature;BME280_humidity;BME280_pressure;Samples;Min_cycle;Max_cycle;Signal;HPM_P1;HPM_P2
2021/12/03 00:00:36;;;;;;;0.30;0.20;;;0.10;93.10;;;;;;6178606;23;19997;-77
2021/12/03 00:03:04;;;;;;;0.28;0.25;;;0.00;93.10;;;;;;6133992;23;20032;-77
2021/12/03 00:05:30;;;;;;;0.20;0.10;;;0.00;93.10;;;;;;6144691;23;20001;-76
2021/12/03 00:07:55;;;;;;;0.40;0.40;;;-0.10;93.10;;;;;;6179548;23;20005;-76
2021/12/03 00:10:25;;;;;;;0.20;0.20;;;0.00;93.10;;;;;;6156242;23;20059;-76
2021/12/03 00:12:52;;;;;;;0.15;0.15;;;-0.10;93.10;;;;;;6151624;23;20009;-76
2021/12/03 00:15:19;;;;;;;0.30;0.30;;;-0.10;93.10;;;;;;6154437;23;20006;-76
2021/12/03 00:17:45;;;;;;;0.35;0.30;;;-0.10;93.50;;;;;;6154672;23;20016;-76
2021/12/03 00:20:14;;;;;;;0.40;0.32;;;-0.10;93.10;;;;;;6150248;23;20017;-76
2021/12/03 00:22:42;;;;;;;0.40;0.40;;;-0.10;93.10;;;;;;6138109;23;20444;-76
2021/12/03 00:25:08;;;;;;;0.30;0.30;;;-0.10;93.10;;;;;;6157503;23;20065;-75
2021/12/03 00:27:34;;;;;;;0.82;0.40;;;-0.10;93.10;;;;;;6149353;23;20016;-75
2021/12/03 00:30:00;;;;;;;0.20;0.20;;;-0.10;93.10;;;;;;6125456;23;20018;-75
2021/12/03 00:32:26;;;;;;;0.15;0.15;;;-0.10;93.10;;;;;;6102623;23;20016;-76
2021/12/03 00:34:52;;;;;;;0.38;0.30;;;-0.10;93.20;;;;;;6129248;23;20009;-77
2021/12/03 00:37:18;;;;;;;0.28;0.28;;;-0.10;93.20;;;;;;6157320;23;20015;-75
2021/12/03 00:39:43;;;;;;;0.32;0.20;;;-0.10;93.20;;;;;;6155546;23;20002;-76
2021/12/03 00:42:14;;;;;;;0.50;0.30;;;-0.10;93.20;;;;;;6154015;23;20001;-75
2021/12/03 00:44:40;;;;;;;0.40;0.40;;;-0.20;93.20;;;;;;6143171;23;20318;-75
2021/12/03 00:47:05;;;;;;;0.50;0.30;;;-0.10;93.20;;;;;;6166134;23;20037;-75
2021/12/03 00:49:31;;;;;;;0.63;0.30;;;-0.10;93.20;;;;;;6155269;23;20009;-76
2021/12/03 00:51:57;;;;;;;0.30;0.30;;;-0.10;93.10;;;;;;6140383;23;20015;-76
2021/12/03 00:54:22;;;;;;;0.40;0.40;;;-0.10;93.10;;;;;;6128859;23;20088;-76
2021/12/03 00:56:48;;;;;;;0.90;0.43;;;-0.10;93.20;;;;;;6153796;23;19997;-77
2021/12/03 00:59:14;;;;;;;0.40;0.30;;;-0.10;93.20;;;;;;6156124;23;20006;-76
2021/12/03 01:01:40;;;;;;;0.30;0.30;;;-0.10;93.20;;;;;;6149196;23;20041;-76
2021/12/03 01:04:06;;;;;;;0.45;0.40;;;-0.10;93.20;;;;;;6162482;23;20001;-76
2021/12/03 01:06:32;;;;;;;0.80;0.47;;;-0.20;93.10;;;;;;6132997;23;20075;-76
2021/12/03 01:08:58;;;;;;;1.08;0.30;;;-0.20;93.10;;;;;;6157396;23;20444;-76
2021/12/03 01:11:24;;;;;;;0.25;0.25;;;-0.10;93.20;;;;;;6152535;23;20336;-75
2021/12/03 01:13:50;;;;;;;0.60;0.45;;;-0.10;93.20;;;;;;6103403;23;20057;-76
2021/12/03 01:16:16;;;;;;;0.70;0.40;;;-0.10;93.20;;;;;;6130185;23;20013;-76
2021/12/03 01:18:44;;;;;;;0.47;0.30;;;-0.10;93.10;;;;;;6155251;23;20005;-76
2021/12/03 01:21:11;;;;;;;0.25;0.25;;;-0.20;93.10;;;;;;6098600;23;20061;-76
2021/12/03 01:23:37;;;;;;;0.45;0.30;;;-0.20;93.10;;;;;;6100234;23;20469;-76
2021/12/03 01:26:04;;;;;;;0.60;0.30;;;-0.10;93.20;;;;;;6163308;23;20080;-75
2021/12/03 01:28:30;;;;;;;0.20;0.20;;;-0.20;93.10;;;;;;6138935;23;20554;-76
2021/12/03 01:30:58;;;;;;;0.38;0.30;;;-0.20;93.20;;;;;;6169498;23;20010;-76
2021/12/03 01:33:24;;;;;;;0.65;0.45;;;-0.20;93.20;;;;;;6115924;23;20079;-76
2021/12/03 01:35:50;;;;;;;0.17;0.17;;;-0.20;93.20;;;;;;6127721;23;20001;-76
2021/12/03 01:38:17;;;;;;;0.30;0.30;;;-0.10;93.20;;;;;;6151959;23;20005;-76
2021/12/03 01:40:43;;;;;;;0.40;0.40;;;-0.10;93.20;;;;;;6152138;23;20010;-76
2021/12/03 01:43:14;;;;;;;0.70;0.45;;;-0.10;93.10;;;;;;6131148;23;20008;-76
2021/12/03 01:45:42;;;;;;;0.30;0.30;;;-0.10;93.10;;;;;;6154567;23;20002;-76
2021/12/03 01:48:08;;;;;;;0.30;0.30;;;-0.10;93.10;;;;;;6127702;23;20037;-76
2021/12/03 01:50:42;;;;;;;0.40;0.40;;;0.00;93.10;;;;;;6154109;23;20001;-75
2021/12/03 01:53:09;;;;;;;1.13;0.63;;;0.00;93.10;;;;;;6154293;23;20016;-75
2021/12/03 01:55:36;;;;;;;0.43;0.40;;;0.00;93.10;;;;;;6154088;23;20067;-76
2021/12/03 01:58:03;;;;;;;0.40;0.40;;;0.00;93.00;;;;;;6152745;23;20433;-76
2021/12/03 02:00:33;;;;;;;0.20;0.17;;;0.10;93.00;;;;;;6139010;23;20009;-75
2021/12/03 02:02:59;;;;;;;0.55;0.30;;;0.00;93.00;;;;;;6139240;23;20366;-76
2021/12/03 02:05:26;;;;;;;0.55;0.40;;;0.10;93.00;;;;;;6139027;23;20036;-75
2021/12/03 02:07:52;;;;;;;0.32;0.32;;;0.10;93.00;;;;;;6154062;23;20422;-75
2021/12/03 02:10:22;;;;;;;0.85;0.43;;;0.10;93.00;;;;;;6154622;23;20032;-75
2021/12/03 02:12:48;;;;;;;0.70;0.45;;;0.10;93.10;;;;;;6157252;23;20013;-76
2021/12/03 02:15:15;;;;;;;0.70;0.50;;;0.10;93.10;;;;;;6108187;23;20009;-76
2021/12/03 02:17:41;;;;;;;0.60;0.52;;;0.20;93.00;;;;;;6154147;23;19994;-76
2021/12/03 02:20:09;;;;;;;0.40;0.40;;;0.20;93.00;;;;;;6156656;23;20464;-75
2021/12/03 02:22:37;;;;;;;0.60;0.40;;;0.20;92.90;;;;;;6153718;23;20025;-75
2021/12/03 02:25:04;;;;;;;0.40;0.40;;;0.20;92.90;;;;;;6153861;23;20337;-76
2021/12/03 02:27:30;;;;;;;0.60;0.43;;;0.20;93.00;;;;;;6151672;23;20005;-75
2021/12/03 02:29:55;;;;;;;0.93;0.70;;;0.20;93.00;;;;;;6153893;23;20065;-76
2021/12/03 02:32:21;;;;;;;1.23;0.73;;;0.30;93.00;;;;;;6151765;23;20009;-76
2021/12/03 02:34:47;;;;;;;1.05;0.80;;;0.30;93.00;;;;;;6153151;23;20434;-76
2021/12/03 02:37:13;;;;;;;0.95;0.70;;;0.30;93.00;;;;;;6153670;23;20001;-76
2021/12/03 02:39:39;;;;;;;0.75;0.60;;;0.40;93.00;;;;;;6164871;23;20294;-75
2021/12/03 02:42:05;;;;;;;1.02;0.77;;;0.40;92.90;;;;;;6132438;23;20060;-77
2021/12/03 02:44:31;;;;;;;1.02;0.70;;;0.40;92.90;;;;;;6152978;23;20001;-75
2021/12/03 02:46:57;;;;;;;0.73;0.57;;;0.40;93.20;;;;;;6163841;23;20012;-75
2021/12/03 02:49:23;;;;;;;2.40;0.75;;;0.50;92.90;;;;;;6184231;23;20013;-75
2021/12/03 02:51:49;;;;;;;1.45;0.80;;;0.50;92.90;;;;;;6184897;23;20013;-75
2021/12/03 02:54:16;;;;;;;1.20;0.80;;;0.50;92.90;;;;;;6153717;23;20056;-75
2021/12/03 02:56:42;;;;;;;1.25;0.90;;;0.60;92.90;;;;;;6140872;23;20024;-75
2021/12/03 02:59:07;;;;;;;1.23;0.82;;;0.60;92.90;;;;;;6128488;23;20424;-76
2021/12/03 03:01:33;;;;;;;1.38;0.85;;;0.60;92.90;;;;;;6154821;23;20438;-75
2021/12/03 03:03:59;;;;;;;1.40;0.98;;;0.60;92.80;;;;;;6154638;23;20005;-75
2021/12/03 03:06:25;;;;;;;0.95;0.82;;;0.60;92.80;;;;;;6140240;23;20010;-75
2021/12/03 03:08:52;;;;;;;0.90;0.70;;;0.60;92.80;;;;;;6101286;23;20005;-75
2021/12/03 03:11:18;;;;;;;1.60;0.90;;;0.70;92.80;;;;;;6152812;23;20013;-75
2021/12/03 03:13:44;;;;;;;1.33;1.02;;;0.70;92.80;;;;;;6154612;23;20001;-75
2021/12/03 03:16:11;;;;;;;1.92;1.00;;;0.70;92.80;;;;;;6123694;23;20110;-75
2021/12/03 03:18:37;;;;;;;1.42;0.85;;;0.70;92.80;;;;;;6169924;23;20321;-75
2021/12/03 03:21:04;;;;;;;1.27;0.80;;;0.70;92.80;;;;;;6157841;23;20001;-76
2021/12/03 03:23:32;;;;;;;1.52;1.05;;;0.70;92.80;;;;;;6183090;23;20005;-75
2021/12/03 03:25:58;;;;;;;1.65;1.10;;;0.70;92.80;;;;;;6127078;23;20088;-75
2021/12/03 03:28:25;;;;;;;1.63;0.90;;;0.70;92.80;;;;;;6137138;23;20018;-75
2021/12/03 03:30:53;;;;;;;1.50;0.90;;;0.80;92.90;;;;;;6154142;23;20005;-75
2021/12/03 03:33:20;;;;;;;1.50;1.00;;;0.80;92.90;;;;;;6154198;23;20303;-75
2021/12/03 03:35:45;;;;;;;1.75;1.20;;;0.70;92.90;;;;;;6154652;23;20004;-75
2021/12/03 03:38:12;;;;;;;1.45;1.05;;;0.80;92.90;;;;;;6138187;23;20013;-75
2021/12/03 03:40:39;;;;;;;1.30;0.90;;;0.80;92.90;;;;;;6140359;23;20092;-75
2021/12/03 03:43:06;;;;;;;1.30;0.90;;;0.90;93.00;;;;;;6152754;23;20012;-75
2021/12/03 03:45:33;;;;;;;1.27;1.13;;;0.80;92.90;;;;;;6175184;23;20024;-75
2021/12/03 03:48:00;;;;;;;1.25;0.93;;;0.80;92.90;;;;;;6156490;23;20492;-75
2021/12/03 03:50:27;;;;;;;1.90;1.00;;;0.90;93.00;;;;;;6157588;23;20333;-75
2021/12/03 03:52:53;;;;;;;2.35;1.42;;;0.90;92.90;;;;;;6157656;23;20016;-75
2021/12/03 03:55:20;;;;;;;2.13;1.20;;;0.90;92.90;;;;;;6133144;23;19997;-76
2021/12/03 03:57:48;;;;;;;1.73;1.17;;;1.00;92.90;;;;;;6157982;23;19997;-76
2021/12/03 04:00:19;;;;;;;2.10;1.30;;;1.00;92.90;;;;;;6159332;23;20008;-76
2021/12/03 04:02:45;;;;;;;2.00;1.38;;;1.00;92.90;;;;;;6149231;23;20433;-76
2021/12/03 04:05:12;;;;;;;1.52;1.13;;;1.10;92.90;;;;;;6178396;23;20005;-76
2021/12/03 04:07:38;;;;;;;2.38;1.40;;;1.00;92.90;;;;;;6125387;23;20005;-77
2021/12/03 04:10:05;;;;;;;2.38;1.42;;;1.00;92.90;;;;;;6127752;23;20012;-77
2021/12/03 04:12:32;;;;;;;2.15;1.40;;;1.10;92.90;;;;;;6153767;23;20425;-77
2021/12/03 04:14:58;;;;;;;2.40;1.38;;;1.10;92.90;;;;;;6140423;23;20011;-75
2021/12/03 04:17:23;;;;;;;2.17;1.35;;;1.10;92.90;;;;;;6154129;23;20001;-75
2021/12/03 04:19:49;;;;;;;1.80;1.20;;;1.10;92.90;;;;;;6153850;23;20005;-75
2021/12/03 04:22:18;;;;;;;3.03;1.58;;;1.10;92.90;;;;;;6141840;23;20040;-76
2021/12/03 04:24:44;;;;;;;2.42;1.50;;;1.10;92.90;;;;;;6176396;23;20080;-76
2021/12/03 04:27:09;;;;;;;2.78;1.45;;;1.20;93.00;;;;;;6152524;23;20008;-75
2021/12/03 04:29:36;;;;;;;3.55;1.50;;;1.20;93.00;;;;;;6163643;23;20020;-76
2021/12/03 04:32:02;;;;;;;3.50;1.95;;;1.20;93.00;;;;;;6130495;23;20041;-76
2021/12/03 04:34:28;;;;;;;3.55;1.73;;;1.20;93.00;;;;;;6140215;23;20002;-75
2021/12/03 04:36:54;;;;;;;3.55;1.77;;;1.20;92.90;;;;;;6101511;23;20299;-76
2021/12/03 04:39:20;;;;;;;4.43;2.33;;;1.30;92.90;;;;;;6154067;23;20053;-76
2021/12/03 04:41:45;;;;;;;5.55;3.05;;;1.30;92.90;;;;;;6149255;23;20009;-75
2021/12/03 04:44:11;;;;;;;5.65;2.50;;;1.30;92.90;;;;;;6148105;23;20080;-75
2021/12/03 04:46:37;;;;;;;4.95;2.33;;;1.30;92.90;;;;;;6154016;23;20084;-76
2021/12/03 04:49:03;;;;;;;6.20;3.13;;;1.30;92.90;;;;;;6154373;23;20001;-75
2021/12/03 04:51:29;;;;;;;5.70;2.95;;;1.30;92.90;;;;;;6142308;23;20055;-75
2021/12/03 04:53:55;;;;;;;6.70;3.17;;;1.40;92.90;;;;;;6157886;23;20059;-75
2021/12/03 04:56:20;;;;;;;6.97;3.45;;;1.40;92.90;;;;;;6149309;23;20373;-75
2021/12/03 04:58:46;;;;;;;8.18;4.10;;;1.40;92.90;;;;;;6136714;23;20008;-75
2021/12/03 05:01:12;;;;;;;11.68;4.55;;;1.40;92.90;;;;;;6140319;23;20391;-76
2021/12/03 05:03:37;;;;;;;10.43;4.80;;;1.40;92.90;;;;;;6154144;23;20024;-76
2021/12/03 05:06:08;;;;;;;8.25;4.20;;;1.40;92.90;;;;;;6129798;23;20382;-75
2021/12/03 05:08:33;;;;;;;12.30;4.70;;;1.40;92.90;;;;;;6141470;23;20448;-76
2021/12/03 05:11:00;;;;;;;8.10;3.50;;;1.40;92.90;;;;;;6175606;23;20004;-75
2021/12/03 05:13:32;;;;;;;7.95;3.55;;;1.50;92.90;;;;;;6130798;23;20440;-76
2021/12/03 05:15:59;;;;;;;10.02;4.05;;;1.40;92.90;;;;;;6128272;23;20055;-75
2021/12/03 05:18:27;;;;;;;9.05;3.60;;;1.50;92.90;;;;;;6143716;23;20020;-77
2021/12/03 05:20:55;;;;;;;8.73;3.50;;;1.50;92.90;;;;;;6154597;23;20010;-75
2021/12/03 05:23:23;;;;;;;8.85;3.83;;;1.50;92.90;;;;;;6126945;23;20365;-77
2021/12/03 05:25:49;;;;;;;10.38;3.97;;;1.60;93.00;;;;;;6140138;23;20016;-76
2021/12/03 05:28:16;;;;;;;8.25;3.83;;;1.50;92.90;;;;;;6140615;23;20036;-75
2021/12/03 05:30:42;;;;;;;9.98;3.90;;;1.70;93.00;;;;;;6153467;23;19997;-75
2021/12/03 05:33:09;;;;;;;7.57;3.33;;;1.60;92.90;;;;;;6130397;23;20051;-75
2021/12/03 05:35:36;;;;;;;10.23;4.25;;;1.60;93.00;;;;;;6128183;23;20374;-76
2021/12/03 05:38:03;;;;;;;9.93;4.28;;;1.60;92.90;;;;;;6153945;23;20001;-75
2021/12/03 05:40:29;;;;;;;11.57;4.93;;;1.70;93.00;;;;;;6152362;23;19997;-76
2021/12/03 05:42:55;;;;;;;13.70;5.95;;;1.70;93.00;;;;;;6154924;23;20001;-75
2021/12/03 05:45:25;;;;;;;12.10;5.35;;;1.70;93.00;;;;;;6150081;23;20033;-75
2021/12/03 05:47:52;;;;;;;10.25;4.57;;;1.80;93.00;;;;;;6178050;23;20100;-75
2021/12/03 05:50:19;;;;;;;11.50;5.18;;;1.70;92.90;;;;;;6174561;23;20006;-75
2021/12/03 05:52:48;;;;;;;10.73;5.15;;;1.80;93.00;;;;;;6145428;23;20314;-75
2021/12/03 05:55:15;;;;;;;9.52;5.32;;;1.80;93.00;;;;;;6139552;23;20417;-75
2021/12/03 05:57:42;;;;;;;12.50;5.50;;;1.80;92.90;;;;;;6153849;23;20369;-74
2021/12/03 06:00:15;;;;;;;12.32;5.13;;;1.80;92.90;;;;;;6171365;23;19998;-75
2021/12/03 06:02:41;;;;;;;10.60;5.38;;;1.90;92.90;;;;;;6180085;23;20052;-76
2021/12/03 06:05:08;;;;;;;10.10;4.85;;;1.90;92.90;;;;;;6159035;23;20092;-75
2021/12/03 06:07:33;;;;;;;11.77;5.45;;;1.90;92.90;;;;;;6173122;23;20009;-75
2021/12/03 06:09:59;;;;;;;11.07;4.50;;;1.90;92.90;;;;;;6130408;23;20111;-76
2021/12/03 06:12:25;;;;;;;7.80;4.10;;;1.90;92.90;;;;;;6153486;23;20063;-77
2021/12/03 06:14:51;;;;;;;9.75;4.80;;;1.90;92.90;;;;;;6153912;23;20012;-77
2021/12/03 06:17:16;;;;;;;10.77;5.35;;;1.90;93.00;;;;;;6155415;23;19997;-77
2021/12/03 06:19:43;;;;;;;8.88;4.18;;;2.00;93.00;;;;;;6142015;23;20032;-77
2021/12/03 06:22:09;;;;;;;10.35;4.55;;;2.00;93.00;;;;;;6158105;23;20016;-78
2021/12/03 06:24:37;;;;;;;9.35;4.57;;;2.00;93.00;;;;;;6167307;23;20006;-77
2021/12/03 06:27:04;;;;;;;9.52;4.22;;;2.00;93.00;;;;;;6157577;23;20057;-76
2021/12/03 06:29:30;;;;;;;9.15;3.80;;;2.00;93.00;;;;;;6151579;23;20005;-77
2021/12/03 06:31:55;;;;;;;7.18;3.65;;;2.00;93.00;;;;;;6135792;23;20035;-76
2021/12/03 06:34:21;;;;;;;7.75;3.90;;;2.10;93.00;;;;;;6135708;23;20008;-76
2021/12/03 06:36:47;;;;;;;8.30;4.05;;;2.20;93.10;;;;;;6160005;23;20047;-76
2021/12/03 06:39:13;;;;;;;9.30;3.90;;;2.10;93.00;;;;;;6161160;23;20329;-75
2021/12/03 06:41:39;;;;;;;8.38;4.18;;;2.10;93.00;;;;;;6139316;23;20007;-77
2021/12/03 06:44:08;;;;;;;8.88;3.60;;;2.10;93.00;;;;;;6164828;23;20005;-78
2021/12/03 06:46:34;;;;;;;9.57;4.40;;;2.10;93.00;;;;;;6136334;23;20016;-76
2021/12/03 06:49:01;;;;;;;11.88;4.82;;;2.20;93.10;;;;;;6135613;23;20048;-76
2021/12/03 06:51:27;;;;;;;10.57;5.22;;;2.20;93.00;;;;;;6153833;23;20433;-76
2021/12/03 06:53:58;;;;;;;9.43;5.30;;;2.20;93.00;;;;;;6157835;23;20016;-76
2021/12/03 06:56:32;;;;;;;10.98;4.88;;;2.20;93.00;;;;;;6181055;23;20008;-75
2021/12/03 06:58:58;;;;;;;12.30;5.35;;;2.30;93.00;;;;;;6153657;23;20425;-76
2021/12/03 07:01:23;;;;;;;11.90;5.70;;;2.30;92.90;;;;;;6157509;23;20014;-76
2021/12/03 07:03:49;;;;;;;10.13;4.50;;;2.30;92.90;;;;;;6183310;23;20328;-76
2021/12/03 07:06:15;;;;;;;9.30;4.47;;;2.30;92.90;;;;;;6132001;23;20020;-76
2021/12/03 07:08:40;;;;;;;8.32;4.32;;;2.30;93.00;;;;;;6156706;23;20005;-76
2021/12/03 07:11:06;;;;;;;10.35;4.55;;;2.30;93.00;;;;;;6156310;23;20013;-76
2021/12/03 07:13:32;;;;;;;9.52;4.50;;;2.30;93.00;;;;;;6142841;23;20020;-76
2021/12/03 07:15:59;;;;;;;8.02;4.18;;;2.30;93.00;;;;;;6131494;23;20535;-76
2021/12/03 07:18:25;;;;;;;8.27;4.07;;;2.30;93.00;;;;;;6151842;23;20001;-76
2021/12/03 07:20:51;;;;;;;9.48;4.05;;;2.30;93.00;;;;;;6133647;23;20012;-76
2021/12/03 07:23:17;;;;;;;7.07;3.85;;;2.40;93.00;;;;;;6134719;23;20418;-77
2021/12/03 07:25:43;;;;;;;7.68;4.05;;;2.30;93.00;;;;;;6158474;23;20088;-75
2021/12/03 07:28:09;;;;;;;8.88;4.10;;;2.40;93.00;;;;;;6141737;23;20008;-75
2021/12/03 07:30:35;;;;;;;9.45;4.40;;;2.40;93.00;;;;;;6133790;23;20001;-75
2021/12/03 07:33:01;;;;;;;9.10;4.18;;;2.40;93.00;;;;;;6144126;23;20021;-75
2021/12/03 08:31:11;;;;;;;7.20;2.80;;;2.10;89.70;;;;;;5153030;27;20154;-75
2021/12/03 08:33:38;;;;;;;7.30;2.60;;;2.50;92.80;;;;;;5098641;28;20039;-74
2021/12/03 08:36:04;;;;;;;7.05;2.60;;;2.60;92.80;;;;;;5145537;28;20067;-76
2021/12/03 08:38:30;;;;;;;5.78;2.35;;;2.60;92.80;;;;;;5124423;28;20043;-75
2021/12/03 08:40:56;;;;;;;5.32;2.38;;;2.70;92.80;;;;;;5126896;28;20054;-74
2021/12/03 08:43:21;;;;;;;4.65;1.90;;;2.70;92.70;;;;;;5138662;28;20118;-75
2021/12/03 08:45:53;;;;;;;4.97;1.80;;;2.70;92.70;;;;;;5111795;28;20122;-75
2021/12/03 08:48:18;;;;;;;4.72;2.15;;;2.70;92.70;;;;;;5111073;28;20039;-74
2021/12/03 08:50:52;;;;;;;4.25;1.80;;;2.80;92.70;;;;;;5111130;28;20398;-74
2021/12/03 08:56:04;;;;;;;4.85;1.92;;;2.80;92.70;;;;;;5114124;28;20386;-74
2021/12/03 08:58:30;;;;;;;3.40;1.95;;;2.80;92.70;;;;;;5077277;28;20035;-74
2021/12/03 09:00:57;;;;;;;6.13;2.10;;;2.80;92.60;;;;;;5111312;28;20037;-73
2021/12/03 09:03:25;;;;;;;5.97;1.90;;;2.90;92.70;;;;;;5129130;28;20031;-73
2021/12/03 09:05:52;;;;;;;5.00;1.83;;;2.90;92.70;;;;;;5129482;28;20089;-74
2021/12/03 09:08:18;;;;;;;3.45;1.70;;;2.90;92.60;;;;;;5111043;28;20088;-73
2021/12/03 09:10:44;;;;;;;4.28;1.73;;;2.90;92.60;;;;;;5093930;28;20478;-73
2021/12/03 09:13:09;;;;;;;4.32;1.88;;;2.90;92.60;;;;;;5110673;28;20035;-73
2021/12/03 09:15:39;;;;;;;4.32;2.00;;;3.00;92.60;;;;;;5129517;28;20204;-73
2021/12/03 09:18:17;;;;;;;3.67;1.73;;;2.90;92.50;;;;;;5128849;28;20378;-74
2021/12/03 09:21:07;;;;;;;5.63;2.10;;;3.00;92.60;;;;;;5112446;28;20088;-75
2021/12/03 09:24:01;;;;;;;4.40;1.98;;;3.00;92.50;;;;;;5127701;28;20035;-74
2021/12/03 09:26:16;;;;;;;4.30;2.15;;;3.00;92.50;;;;;;5113498;28;20398;-73
2021/12/03 09:28:47;;;;;;;4.50;1.90;;;3.00;92.50;;;;;;5129111;28;20047;-74
2021/12/03 09:31:13;;;;;;;5.32;2.28;;;3.10;92.50;;;;;;5120620;28;20044;-74
2021/12/03 09:33:41;;;;;;;5.43;2.40;;;3.10;92.40;;;;;;5096912;28;20486;-75
2021/12/03 09:36:08;;;;;;;4.82;2.15;;;3.10;92.40;;;;;;5114842;28;20489;-74
2021/12/03 09:38:35;;;;;;;5.05;2.10;;;3.10;92.40;;;;;;5096896;28;20100;-74
2021/12/03 09:41:08;;;;;;;4.82;2.17;;;3.10;92.40;;;;;;5099382;28;20044;-74
2021/12/03 09:43:37;;;;;;;5.20;2.10;;;3.10;92.30;;;;;;5116149;28;20047;-74
2021/12/03 09:51:46;;;;;;;;;;;3.20;92.30;;;;;;5104719;28;20420;-75
2021/12/03 09:54:25;;;;;;;2.58;1.40;;;3.20;92.20;;;;;;5100055;28;19967;-74
2021/12/03 09:56:59;;;;;;;4.32;1.40;;;3.20;92.20;;;;;;5081703;28;20143;-74
2021/12/03 10:00:03;;;;;;;4.85;1.55;;;3.30;92.20;;;;;;5099339;28;20044;-75
2021/12/03 10:02:20;;;;;;;3.35;1.38;;;3.30;92.20;;;;;;5114417;28;20048;-75
2021/12/03 10:05:22;;;;;;;4.68;1.70;;;3.30;92.20;;;;;;5096559;28;20046;-75
2021/12/03 10:13:38;;;;;;;3.63;1.52;;;3.40;92.10;;;;;;5087070;28;20055;-76
2021/12/03 10:16:17;;;;;;;4.95;1.63;;;3.40;92.00;;;;;;5096705;28;20055;-76
2021/12/03 10:18:58;;;;;;;5.30;1.63;;;3.50;92.00;;;;;;5097546;28;20043;-77
2021/12/03 10:24:42;;;;;;;3.45;1.77;;;3.50;91.90;;;;;;5097610;28;20104;-76
2021/12/03 10:30:39;;;;;;;8.85;2.20;;;3.60;91.80;;;;;;5097760;28;20039;-76
2021/12/03 10:33:50;;;;;;;5.28;1.92;;;3.60;91.80;;;;;;5115011;28;20046;-75
2021/12/03 10:36:28;;;;;;;7.20;1.85;;;3.70;91.70;;;;;;5114528;28;20458;-76
2021/12/03 10:39:16;;;;;;;6.07;1.80;;;3.60;91.70;;;;;;5114634;28;20126;-76
2021/12/03 10:44:44;;;;;;;5.15;2.05;;;3.60;91.70;;;;;;5097146;28;20036;-75
2021/12/03 10:47:24;;;;;;;6.85;1.70;;;3.60;91.60;;;;;;5114579;28;20100;-76
2021/12/03 10:50:24;;;;;;;6.07;2.13;;;3.70;91.60;;;;;;5115303;28;20046;-74
2021/12/03 10:53:00;;;;;;;8.55;2.10;;;3.70;91.60;;;;;;5098632;28;20035;-75
2021/12/03 10:58:31;;;;;;;5.05;1.92;;;3.80;91.60;;;;;;5097883;28;20128;-76
2021/12/03 11:01:42;;;;;;;4.00;1.83;;;3.70;91.50;;;;;;5114376;28;20565;-76
2021/12/03 11:31:43;;;;;;;6.00;2.50;;;3.90;91.60;;;;;;5114074;28;20454;-76
2021/12/03 11:39:30;;;;;;;6.18;2.40;;;4.00;91.50;;;;;;5112445;28;20051;-75
2021/12/03 11:51:18;;;;;;;4.15;1.90;;;4.10;91.40;;;;;;5112874;28;20047;-75
2021/12/03 11:59:40;;;;;;;6.15;2.30;;;4.20;91.40;;;;;;5082549;28;20048;-75
2021/12/03 12:05:29;;;;;;;4.03;1.92;;;4.30;91.40;;;;;;5097428;28;20044;-76
2021/12/03 12:11:04;;;;;;;5.72;2.38;;;4.40;91.30;;;;;;5096715;28;20043;-75
2021/12/03 12:24:58;;;;;;;5.20;2.17;;;4.60;91.20;;;;;;5096004;28;20509;-76
2021/12/03 12:28:51;;;;;;;3.70;1.80;;;4.60;91.20;;;;;;5112290;28;20101;-76
2021/12/03 12:42:10;;;;;;;9.65;2.90;;;4.80;91.00;;;;;;5098706;28;20051;-77
2021/12/03 13:05:04;;;;;;;5.93;2.10;;;4.90;90.70;;;;;;5096601;28;20051;-77
2021/12/03 14:01:14;;;;;;;2.50;1.63;;;5.00;90.20;;;;;;5114670;28;20098;-76
2021/12/03 14:07:00;;;;;;;2.80;1.80;;;5.00;90.30;;;;;;5098600;28;20032;-76
2021/12/03 14:36:56;;;;;;;2.88;1.52;;;4.70;90.50;;;;;;5082760;28;20047;-76
2021/12/03 14:39:29;;;;;;;2.10;1.30;;;4.70;90.60;;;;;;5084713;28;20055;-76
2021/12/03 14:42:03;;;;;;;2.67;1.20;;;4.70;90.60;;;;;;5095491;28;20093;-76
2021/12/03 14:44:54;;;;;;;3.70;1.50;;;4.60;90.60;;;;;;5096982;28;20861;-76
2021/12/03 14:53:10;;;;;;;1.85;1.20;;;4.50;90.80;;;;;;5113794;28;20043;-77
2021/12/03 14:55:36;;;;;;;3.28;1.25;;;4.50;90.80;;;;;;5113711;28;20108;-77
2021/12/03 14:58:07;;;;;;;2.65;1.23;;;4.40;90.80;;;;;;5078707;28;20486;-75
2021/12/03 15:00:47;;;;;;;2.42;1.33;;;4.40;90.90;;;;;;5079143;28;20043;-76
2021/12/03 15:08:49;;;;;;;1.98;1.00;;;4.40;91.10;;;;;;5113348;28;20036;-75
2021/12/03 15:14:35;;;;;;;2.47;1.20;;;4.30;91.10;;;;;;5113248;28;20401;-75
2021/12/03 15:25:01;;;;;;;2.10;1.10;;;4.20;91.30;;;;;;5113157;28;20051;-76
2021/12/03 15:30:38;;;;;;;3.67;1.33;;;4.20;91.40;;;;;;5112552;28;20048;-76
2021/12/03 15:33:03;;;;;;;1.95;1.20;;;4.10;91.40;;;;;;5083782;28;20034;-76
2021/12/03 15:35:43;;;;;;;2.38;1.35;;;4.20;91.50;;;;;;5079095;28;20044;-77
2021/12/03 15:38:27;;;;;;;2.15;1.30;;;4.10;91.50;;;;;;5095327;28;20100;-78
2021/12/03 15:52:06;;;;;;;1.67;1.20;;;4.20;91.60;;;;;;5112808;28;20051;-77
2021/12/03 15:55:25;;;;;;;2.42;1.17;;;4.20;91.60;;;;;;5112745;28;20406;-79
2021/12/03 15:57:45;;;;;;;1.60;1.02;;;4.20;91.60;;;;;;5095361;28;20054;-79
2021/12/03 16:05:50;;;;;;;2.33;1.23;;;4.30;91.70;;;;;;5113171;28;20047;-77
2021/12/03 16:08:15;;;;;;;3.88;1.42;;;4.20;91.70;;;;;;5112153;28;20046;-77
2021/12/03 16:13:42;;;;;;;2.08;1.20;;;4.20;91.80;;;;;;5112508;28;20047;-79
2021/12/03 16:27:12;;;;;;;1.80;1.27;;;4.20;91.90;;;;;;5100294;28;20123;-78
2021/12/03 16:49:13;;;;;;;2.88;1.83;;;4.30;92.00;;;;;;5089944;28;20047;-78
2021/12/03 16:51:13;;;;;;;4.13;1.90;;;4.20;92.00;;;;;;5100771;28;20448;-78
2021/12/03 16:53:39;;;;;;;2.65;1.58;;;4.30;92.00;;;;;;5098773;28;20432;-78
2021/12/03 16:56:12;;;;;;;2.22;1.60;;;4.30;92.00;;;;;;5080577;28;20039;-78
2021/12/03 16:58:40;;;;;;;3.65;1.80;;;4.30;92.00;;;;;;5117280;28;20036;-78
2021/12/03 17:01:14;;;;;;;3.30;1.80;;;4.30;92.10;;;;;;5116000;28;20376;-78
2021/12/03 17:09:18;;;;;;;3.05;1.90;;;4.30;92.10;;;;;;5135720;28;20047;-77
2021/12/03 17:20:16;;;;;;;1.98;1.50;;;4.40;92.20;;;;;;5117934;28;20055;-78
2021/12/03 17:31:14;;;;;;;2.63;1.65;;;4.40;92.20;;;;;;5092957;28;20049;-78
2021/12/03 17:47:13;;;;;;;1.40;1.30;;;4.40;92.20;;;;;;5085017;28;20453;-77
2021/12/03 17:49:37;;;;;;;2.83;1.75;;;4.50;92.30;;;;;;5105123;28;20059;-78
2021/12/03 17:57:34;;;;;;;2.47;1.65;;;4.50;92.30;;;;;;5115038;28;20043;-77
2021/12/03 18:00:05;;;;;;;2.53;1.48;;;4.50;92.30;;;;;;5121014;28;20123;-76
2021/12/03 18:02:39;;;;;;;3.05;1.50;;;4.50;92.30;;;;;;5121478;28;20040;-77
2021/12/03 18:05:23;;;;;;;2.90;1.63;;;4.50;92.30;;;;;;5131044;28;20050;-78
2021/12/03 18:07:59;;;;;;;2.35;1.33;;;4.50;92.30;;;;;;5121376;28;20043;-77
2021/12/03 18:13:29;;;;;;;2.35;1.33;;;4.60;92.40;;;;;;5118619;28;20047;-78
2021/12/03 18:51:02;;;;;;;3.97;1.80;;;4.70;92.50;;;;;;5084831;28;20402;-78
2021/12/03 18:56:19;;;;;;;2.05;1.60;;;4.60;92.40;;;;;;5100473;28;20484;-77
2021/12/03 18:58:51;;;;;;;1.63;1.35;;;4.60;92.40;;;;;;5097892;28;20394;-78
2021/12/03 19:01:18;;;;;;;2.17;1.60;;;4.60;92.40;;;;;;5080077;28;20578;-79
2021/12/03 19:06:32;;;;;;;2.83;1.95;;;4.70;92.50;;;;;;5116810;28;20068;-78
2021/12/03 19:09:04;;;;;;;3.17;2.10;;;4.70;92.50;;;;;;5116491;28;20094;-79
2021/12/03 19:11:35;;;;;;;2.70;2.10;;;4.70;92.50;;;;;;5131044;28;20126;-79
2021/12/03 19:14:01;;;;;;;2.50;1.90;;;4.70;92.50;;;;;;5130996;28;20070;-79
2021/12/03 19:16:27;;;;;;;2.88;2.05;;;4.70;92.50;;;;;;5128721;28;20028;-79
2021/12/03 19:18:55;;;;;;;3.15;2.25;;;4.60;92.50;;;;;;5098915;28;20050;-80
2021/12/03 19:21:25;;;;;;;2.45;1.95;;;4.60;92.50;;;;;;5113474;28;20090;-80
2021/12/03 19:23:54;;;;;;;2.05;1.55;;;4.60;92.50;;;;;;5078162;28;20032;-80
2021/12/03 19:26:21;;;;;;;2.38;1.80;;;4.60;92.60;;;;;;5113312;28;20123;-81
2021/12/03 19:28:49;;;;;;;2.63;1.70;;;4.60;92.60;;;;;;5077577;28;20032;-79
2021/12/03 19:31:14;;;;;;;3.17;2.05;;;4.60;92.60;;;;;;5095237;28;20042;-80
2021/12/03 19:33:40;;;;;;;2.97;2.10;;;4.60;92.60;;;;;;5113290;28;20385;-80
2021/12/03 19:36:07;;;;;;;2.63;1.80;;;4.60;92.60;;;;;;5061448;28;20032;-79
2021/12/03 19:38:36;;;;;;;2.35;1.60;;;4.60;92.70;;;;;;5094463;28;20039;-80
2021/12/03 19:41:12;;;;;;;2.38;1.80;;;4.60;92.70;;;;;;5112942;28;20051;-80
2021/12/03 19:43:43;;;;;;;4.03;2.47;;;4.60;92.70;;;;;;5079445;28;20077;-79
2021/12/03 19:46:13;;;;;;;3.75;2.60;;;4.60;92.70;;;;;;5094600;28;20420;-79
2021/12/03 19:48:48;;;;;;;3.13;2.13;;;4.60;92.70;;;;;;5112854;28;20036;-80
2021/12/03 19:51:16;;;;;;;3.47;2.42;;;4.60;92.70;;;;;;5095863;28;20044;-80
2021/12/03 19:53:48;;;;;;;3.20;2.30;;;4.60;92.70;;;;;;5094512;28;20070;-80
2021/12/03 19:56:14;;;;;;;3.20;2.13;;;4.60;92.70;;;;;;5078098;28;20036;-76
2021/12/03 19:58:40;;;;;;;2.00;1.45;;;4.60;92.80;;;;;;5094362;28;20138;-76
2021/12/03 20:01:06;;;;;;;3.15;1.90;;;4.60;92.90;;;;;;5094287;28;20059;-77
2021/12/03 20:03:32;;;;;;;2.95;1.90;;;4.60;92.80;;;;;;5112777;28;20130;-77
2021/12/03 20:05:57;;;;;;;2.25;1.67;;;4.50;92.80;;;;;;5112553;28;20110;-79
2021/12/03 20:08:25;;;;;;;2.42;1.73;;;4.50;92.80;;;;;;5094997;28;20039;-78